Terminal Aerodrome Forecast
Issued by NWS

Current Version | Previous Version | Text Only | Print | Product List | Glossary On
Versions: 1 2 3 4 5 6 7 8 9 10 11 12 13
000
FTUS42 KMLB 291100
TAFSFB
TAF
KSFB 291129Z 2912/3012 24007KT P6SM FEW025 SCT250
     FM291300 26008KT P6SM VCSH SCT035 SCT250
     FM291600 26010KT P6SM VCTS SCT035CB SCT080 BKN250
      TEMPO 2916/2919 3SM TSRA BKN035CB OVC080
     FM300000 24007KT P6SM SCT040 BKN250=

USA.gov is the U.S. government's official web portal to all federal, state and local government web resources and services.